Aviation Digital Data Service (ADDS)

Output produced by METARs form (1724 UTC 03 June 2020)
found at http://www.aviationweather.gov/metar/data/
 
METAR text: VECC 031700Z 20008KT 3500 HZ SCT018 30/29 Q1005 NOSIG
Conditions at: VECC (CALCUTTA/DUM DUM, IN) observed 1700 UTC 03 June 2020
Temperature: 30.0°C (86°F)
Dewpoint: 29.0°C (84°F) [RH = 94%]
Pressure (altimeter): 29.68 inches Hg (1005.0 mb)
Winds: from the SSW (200 degrees) at 9 MPH (8 knots; 4.1 m/s)
Visibility: 2.17 miles (3.49 km)
Ceiling: at least 12,000 feet AGL
Clouds: scattered clouds at 1800 feet AGL
Weather: HZ  (haze)

METAR text: VECC 031630Z 20008KT 3500 HZ SCT018 30/29 Q1006 NOSIG
Conditions at: VECC (CALCUTTA/DUM DUM, IN) observed 1630 UTC 03 June 2020
Temperature: 30.0°C (86°F)
Dewpoint: 29.0°C (84°F) [RH = 94%]
Pressure (altimeter): 29.70 inches Hg (1006.0 mb)
Winds: from the SSW (200 degrees) at 9 MPH (8 knots; 4.1 m/s)
Visibility: 2.17 miles (3.49 km)
Ceiling: at least 12,000 feet AGL
Clouds: scattered clouds at 1800 feet AGL
Weather: HZ  (haze)

METAR text: VECC 031600Z 19008KT 3800 HZ SCT020 30/29 Q1005 NOSIG
Conditions at: VECC (CALCUTTA/DUM DUM, IN) observed 1600 UTC 03 June 2020
Temperature: 30.0°C (86°F)
Dewpoint: 29.0°C (84°F) [RH = 94%]
Pressure (altimeter): 29.68 inches Hg (1005.0 mb)
Winds: from the S (190 degrees) at 9 MPH (8 knots; 4.1 m/s)
Visibility: 2.36 miles (3.80 km)
Ceiling: at least 12,000 feet AGL
Clouds: scattered clouds at 2000 feet AGL
Weather: HZ  (haze)

METAR text: VECC 031530Z 19006KT 3800 HZ FEW020 31/29 Q1005 NOSIG
Conditions at: VECC (CALCUTTA/DUM DUM, IN) observed 1530 UTC 03 June 2020
Temperature: 31.0°C (88°F)
Dewpoint: 29.0°C (84°F) [RH = 89%]
Pressure (altimeter): 29.68 inches Hg (1005.0 mb)
Winds: from the S (190 degrees) at 7 MPH (6 knots; 3.1 m/s)
Visibility: 2.36 miles (3.80 km)
Ceiling: at least 12,000 feet AGL
Clouds: few clouds at 2000 feet AGL
Weather: HZ  (haze)

METAR text: VECC 031500Z 18007KT 3800 HZ NSC 31/29 Q1005 NOSIG
Conditions at: VECC (CALCUTTA/DUM DUM, IN) observed 1500 UTC 03 June 2020
Temperature: 31.0°C (88°F)
Dewpoint: 29.0°C (84°F) [RH = 89%]
Pressure (altimeter): 29.68 inches Hg (1005.0 mb)
Winds: from the S (180 degrees) at 8 MPH (7 knots; 3.6 m/s)
Visibility: 2.36 miles (3.80 km)
Ceiling: at least 12,000 feet AGL
Clouds: sky clear below 12,000 feet AGL
Weather: HZ  (haze)

METAR text: VECC 031430Z 19007KT 4000 HZ NSC 32/29 Q1004 NOSIG
Conditions at: VECC (CALCUTTA/DUM DUM, IN) observed 1430 UTC 03 June 2020
Temperature: 32.0°C (90°F)
Dewpoint: 29.0°C (84°F) [RH = 84%]
Pressure (altimeter): 29.65 inches Hg (1004.0 mb)
Winds: from the S (190 degrees) at 8 MPH (7 knots; 3.6 m/s)
Visibility: 2.49 miles (4.01 km)
Ceiling: at least 12,000 feet AGL
Clouds: sky clear below 12,000 feet AGL
Weather: HZ  (haze)

METAR text: VECC 031400Z 20006KT 4000 HZ FEW020 32/29 Q1004 NOSIG
Conditions at: VECC (CALCUTTA/DUM DUM, IN) observed 1400 UTC 03 June 2020
Temperature: 32.0°C (90°F)
Dewpoint: 29.0°C (84°F) [RH = 84%]
Pressure (altimeter): 29.65 inches Hg (1004.0 mb)
Winds: from the SSW (200 degrees) at 7 MPH (6 knots; 3.1 m/s)
Visibility: 2.49 miles (4.01 km)
Ceiling: at least 12,000 feet AGL
Clouds: few clouds at 2000 feet AGL
Weather: HZ  (haze)

METAR text: VECC 031330Z 21006KT 4500 HZ FEW020 33/29 Q1003 NOSIG
Conditions at: VECC (CALCUTTA/DUM DUM, IN) observed 1330 UTC 03 June 2020
Temperature: 33.0°C (91°F)
Dewpoint: 29.0°C (84°F) [RH = 80%]
Pressure (altimeter): 29.62 inches Hg (1003.0 mb)
Winds: from the SSW (210 degrees) at 7 MPH (6 knots; 3.1 m/s)
Visibility: 2.80 miles (4.51 km)
Ceiling: at least 12,000 feet AGL
Clouds: few clouds at 2000 feet AGL
Weather: HZ  (haze)

METAR text: VECC 031300Z 24004KT 4500 HZ FEW020 34/27 Q1003 NOSIG
Conditions at: VECC (CALCUTTA/DUM DUM, IN) observed 1300 UTC 03 June 2020
Temperature: 34.0°C (93°F)
Dewpoint: 27.0°C (81°F) [RH = 67%]
Pressure (altimeter): 29.62 inches Hg (1003.0 mb)
Winds: from the WSW (240 degrees) at 5 MPH (4 knots; 2.1 m/s)
Visibility: 2.80 miles (4.51 km)
Ceiling: at least 12,000 feet AGL
Clouds: few clouds at 2000 feet AGL
Weather: HZ  (haze)

METAR text: VECC 031230Z 24005KT 4500 HZ FEW020 35/27 Q1002 NOSIG
Conditions at: VECC (CALCUTTA/DUM DUM, IN) observed 1230 UTC 03 June 2020
Temperature: 35.0°C (95°F)
Dewpoint: 27.0°C (81°F) [RH = 63%]
Pressure (altimeter): 29.59 inches Hg (1002.0 mb)
Winds: from the WSW (240 degrees) at 6 MPH (5 knots; 2.6 m/s)
Visibility: 2.80 miles (4.51 km)
Ceiling: at least 12,000 feet AGL
Clouds: few clouds at 2000 feet AGL
Weather: HZ  (haze)

METAR text: VECC 031200Z 23005KT 5000 HZ FEW020 35/27 Q1002 NOSIG
Conditions at: VECC (CALCUTTA/DUM DUM, IN) observed 1200 UTC 03 June 2020
Temperature: 35.0°C (95°F)
Dewpoint: 27.0°C (81°F) [RH = 63%]
Pressure (altimeter): 29.59 inches Hg (1002.0 mb)
Winds: from the SW (230 degrees) at 6 MPH (5 knots; 2.6 m/s)
Visibility: 3 miles ( 5 km)
Ceiling: at least 12,000 feet AGL
Clouds: few clouds at 2000 feet AGL
Weather: HZ  (haze)

METAR text: VECC 031130Z 24005KT 5000 HZ FEW020 SCT100 35/27 Q1002 NOSIG
Conditions at: VECC (CALCUTTA/DUM DUM, IN) observed 1130 UTC 03 June 2020
Temperature: 35.0°C (95°F)
Dewpoint: 27.0°C (81°F) [RH = 63%]
Pressure (altimeter): 29.59 inches Hg (1002.0 mb)
Winds: from the WSW (240 degrees) at 6 MPH (5 knots; 2.6 m/s)
Visibility: 3 miles ( 5 km)
Ceiling: at least 12,000 feet AGL
Clouds: few clouds at 2000 feet AGL
scattered clouds at 10000 feet AGL
Weather: HZ  (haze)

METAR text: VECC 031100Z 24007KT 5000 HZ FEW020 SCT100 35/26 Q1002 NOSIG
Conditions at: VECC (CALCUTTA/DUM DUM, IN) observed 1100 UTC 03 June 2020
Temperature: 35.0°C (95°F)
Dewpoint: 26.0°C (79°F) [RH = 60%]
Pressure (altimeter): 29.59 inches Hg (1002.0 mb)
Winds: from the WSW (240 degrees) at 8 MPH (7 knots; 3.6 m/s)
Visibility: 3 miles ( 5 km)
Ceiling: at least 12,000 feet AGL
Clouds: few clouds at 2000 feet AGL
scattered clouds at 10000 feet AGL
Weather: HZ  (haze)

METAR text: VECC 031030Z 20004KT 5000 HZ FEW020 SCT100 36/27 Q1002 NOSIG
Conditions at: VECC (CALCUTTA/DUM DUM, IN) observed 1030 UTC 03 June 2020
Temperature: 36.0°C (97°F)
Dewpoint: 27.0°C (81°F) [RH = 60%]
Pressure (altimeter): 29.59 inches Hg (1002.0 mb)
Winds: from the SSW (200 degrees) at 5 MPH (4 knots; 2.1 m/s)
Visibility: 3 miles ( 5 km)
Ceiling: at least 12,000 feet AGL
Clouds: few clouds at 2000 feet AGL
scattered clouds at 10000 feet AGL
Weather: HZ  (haze)

METAR text: VECC 031000Z 23007KT 5000 HZ FEW020 SCT100 36/27 Q1002 NOSIG
Conditions at: VECC (CALCUTTA/DUM DUM, IN) observed 1000 UTC 03 June 2020
Temperature: 36.0°C (97°F)
Dewpoint: 27.0°C (81°F) [RH = 60%]
Pressure (altimeter): 29.59 inches Hg (1002.0 mb)
Winds: from the SW (230 degrees) at 8 MPH (7 knots; 3.6 m/s)
Visibility: 3 miles ( 5 km)
Ceiling: at least 12,000 feet AGL
Clouds: few clouds at 2000 feet AGL
scattered clouds at 10000 feet AGL
Weather: HZ  (haze)

METAR text: VECC 030930Z 24004KT 5000 HZ FEW020 SCT100 36/27 Q1003 NOSIG
Conditions at: VECC (CALCUTTA/DUM DUM, IN) observed 0930 UTC 03 June 2020
Temperature: 36.0°C (97°F)
Dewpoint: 27.0°C (81°F) [RH = 60%]
Pressure (altimeter): 29.62 inches Hg (1003.0 mb)
Winds: from the WSW (240 degrees) at 5 MPH (4 knots; 2.1 m/s)
Visibility: 3 miles ( 5 km)
Ceiling: at least 12,000 feet AGL
Clouds: few clouds at 2000 feet AGL
scattered clouds at 10000 feet AGL
Weather: HZ  (haze)

METAR text: VECC 030900Z 22005KT 5000 HZ FEW020 SCT100 36/27 Q1004 NOSIG
Conditions at: VECC (CALCUTTA/DUM DUM, IN) observed 0900 UTC 03 June 2020
Temperature: 36.0°C (97°F)
Dewpoint: 27.0°C (81°F) [RH = 60%]
Pressure (altimeter): 29.65 inches Hg (1004.0 mb)
Winds: from the SW (220 degrees) at 6 MPH (5 knots; 2.6 m/s)
Visibility: 3 miles ( 5 km)
Ceiling: at least 12,000 feet AGL
Clouds: few clouds at 2000 feet AGL
scattered clouds at 10000 feet AGL
Weather: HZ  (haze)

METAR text: VECC 030830Z 24004KT 5000 HZ FEW020 SCT100 36/27 Q1004 NOSIG
Conditions at: VECC (CALCUTTA/DUM DUM, IN) observed 0830 UTC 03 June 2020
Temperature: 36.0°C (97°F)
Dewpoint: 27.0°C (81°F) [RH = 60%]
Pressure (altimeter): 29.65 inches Hg (1004.0 mb)
Winds: from the WSW (240 degrees) at 5 MPH (4 knots; 2.1 m/s)
Visibility: 3 miles ( 5 km)
Ceiling: at least 12,000 feet AGL
Clouds: few clouds at 2000 feet AGL
scattered clouds at 10000 feet AGL
Weather: HZ  (haze)

METAR text: VECC 030800Z 27007KT 4500 HZ FEW020 SCT100 36/28 Q1004 BECMG 5000 HZ
Conditions at: VECC (CALCUTTA/DUM DUM, IN) observed 0800 UTC 03 June 2020
Temperature: 36.0°C (97°F)
Dewpoint: 28.0°C (82°F) [RH = 64%]
Pressure (altimeter): 29.65 inches Hg (1004.0 mb)
Winds: from the W (270 degrees) at 8 MPH (7 knots; 3.6 m/s)
Visibility: 2.80 miles (4.51 km)
Ceiling: at least 12,000 feet AGL
Clouds: few clouds at 2000 feet AGL
scattered clouds at 10000 feet AGL
Weather: HZ  (haze)

METAR text: VECC 030730Z 22006KT 4000 HZ FEW100 35/28 Q1005 NOSIG
Conditions at: VECC (CALCUTTA/DUM DUM, IN) observed 0730 UTC 03 June 2020
Temperature: 35.0°C (95°F)
Dewpoint: 28.0°C (82°F) [RH = 67%]
Pressure (altimeter): 29.68 inches Hg (1005.0 mb)
Winds: from the SW (220 degrees) at 7 MPH (6 knots; 3.1 m/s)
Visibility: 2.49 miles (4.01 km)
Ceiling: at least 12,000 feet AGL
Clouds: few clouds at 10000 feet AGL
Weather: HZ  (haze)

METAR text: VECC 030700Z 22008KT 4000 HZ FEW100 35/26 Q1005 NOSIG
Conditions at: VECC (CALCUTTA/DUM DUM, IN) observed 0700 UTC 03 June 2020
Temperature: 35.0°C (95°F)
Dewpoint: 26.0°C (79°F) [RH = 60%]
Pressure (altimeter): 29.68 inches Hg (1005.0 mb)
Winds: from the SW (220 degrees) at 9 MPH (8 knots; 4.1 m/s)
Visibility: 2.49 miles (4.01 km)
Ceiling: at least 12,000 feet AGL
Clouds: few clouds at 10000 feet AGL
Weather: HZ  (haze)

METAR text: VECC 030630Z 22008KT 3800 HZ NSC 35/27 Q1005 NOSIG
Conditions at: VECC (CALCUTTA/DUM DUM, IN) observed 0630 UTC 03 June 2020
Temperature: 35.0°C (95°F)
Dewpoint: 27.0°C (81°F) [RH = 63%]
Pressure (altimeter): 29.68 inches Hg (1005.0 mb)
Winds: from the SW (220 degrees) at 9 MPH (8 knots; 4.1 m/s)
Visibility: 2.36 miles (3.80 km)
Ceiling: at least 12,000 feet AGL
Clouds: sky clear below 12,000 feet AGL
Weather: HZ  (haze)

METAR text: VECC 030600Z 22008KT 3800 HZ NSC 34/28 Q1005 NOSIG
Conditions at: VECC (CALCUTTA/DUM DUM, IN) observed 0600 UTC 03 June 2020
Temperature: 34.0°C (93°F)
Dewpoint: 28.0°C (82°F) [RH = 71%]
Pressure (altimeter): 29.68 inches Hg (1005.0 mb)
Winds: from the SW (220 degrees) at 9 MPH (8 knots; 4.1 m/s)
Visibility: 2.36 miles (3.80 km)
Ceiling: at least 12,000 feet AGL
Clouds: sky clear below 12,000 feet AGL
Weather: HZ  (haze)

METAR text: VECC 030530Z 24007KT 3800 HZ NSC 34/27 Q1006 NOSIG
Conditions at: VECC (CALCUTTA/DUM DUM, IN) observed 0530 UTC 03 June 2020
Temperature: 34.0°C (93°F)
Dewpoint: 27.0°C (81°F) [RH = 67%]
Pressure (altimeter): 29.70 inches Hg (1006.0 mb)
Winds: from the WSW (240 degrees) at 8 MPH (7 knots; 3.6 m/s)
Visibility: 2.36 miles (3.80 km)
Ceiling: at least 12,000 feet AGL
Clouds: sky clear below 12,000 feet AGL
Weather: HZ  (haze)

METAR text: VECC 030500Z 24007KT 3800 HZ NSC 33/28 Q1006 NOSIG
Conditions at: VECC (CALCUTTA/DUM DUM, IN) observed 0500 UTC 03 June 2020
Temperature: 33.0°C (91°F)
Dewpoint: 28.0°C (82°F) [RH = 75%]
Pressure (altimeter): 29.70 inches Hg (1006.0 mb)
Winds: from the WSW (240 degrees) at 8 MPH (7 knots; 3.6 m/s)
Visibility: 2.36 miles (3.80 km)
Ceiling: at least 12,000 feet AGL
Clouds: sky clear below 12,000 feet AGL
Weather: HZ  (haze)

METAR text: VECC 030430Z 24007KT 3500 HZ FEW100 32/28 Q1006 NOSIG
Conditions at: VECC (CALCUTTA/DUM DUM, IN) observed 0430 UTC 03 June 2020
Temperature: 32.0°C (90°F)
Dewpoint: 28.0°C (82°F) [RH = 80%]
Pressure (altimeter): 29.70 inches Hg (1006.0 mb)
Winds: from the WSW (240 degrees) at 8 MPH (7 knots; 3.6 m/s)
Visibility: 2.17 miles (3.49 km)
Ceiling: at least 12,000 feet AGL
Clouds: few clouds at 10000 feet AGL
Weather: HZ  (haze)

METAR text: VECC 030400Z 24009KT 3500 HZ FEW100 32/28 Q1007 NOSIG
Conditions at: VECC (CALCUTTA/DUM DUM, IN) observed 0400 UTC 03 June 2020
Temperature: 32.0°C (90°F)
Dewpoint: 28.0°C (82°F) [RH = 80%]
Pressure (altimeter): 29.73 inches Hg (1007.0 mb)
Winds: from the WSW (240 degrees) at 10 MPH (9 knots; 4.6 m/s)
Visibility: 2.17 miles (3.49 km)
Ceiling: at least 12,000 feet AGL
Clouds: few clouds at 10000 feet AGL
Weather: HZ  (haze)

METAR text: VECC 030330Z 22008KT 3500 HZ FEW020 SCT100 32/28 Q1007 NOSIG
Conditions at: VECC (CALCUTTA/DUM DUM, IN) observed 0330 UTC 03 June 2020
Temperature: 32.0°C (90°F)
Dewpoint: 28.0°C (82°F) [RH = 80%]
Pressure (altimeter): 29.73 inches Hg (1007.0 mb)
Winds: from the SW (220 degrees) at 9 MPH (8 knots; 4.1 m/s)
Visibility: 2.17 miles (3.49 km)
Ceiling: at least 12,000 feet AGL
Clouds: few clouds at 2000 feet AGL
scattered clouds at 10000 feet AGL
Weather: HZ  (haze)

METAR text: VECC 030300Z 22009KT 3500 HZ FEW020 BKN100 31/27 Q1007 NOSIG
Conditions at: VECC (CALCUTTA/DUM DUM, IN) observed 0300 UTC 03 June 2020
Temperature: 31.0°C (88°F)
Dewpoint: 27.0°C (81°F) [RH = 79%]
Pressure (altimeter): 29.73 inches Hg (1007.0 mb)
Winds: from the SW (220 degrees) at 10 MPH (9 knots; 4.6 m/s)
Visibility: 2.17 miles (3.49 km)
Ceiling: 10000 feet AGL
Clouds: few clouds at 2000 feet AGL
broken clouds at 10000 feet AGL
Weather: HZ  (haze)

METAR text: VECC 030230Z 22008KT 3500 HZ FEW020 BKN100 30/27 Q1007 NOSIG
Conditions at: VECC (CALCUTTA/DUM DUM, IN) observed 0230 UTC 03 June 2020
Temperature: 30.0°C (86°F)
Dewpoint: 27.0°C (81°F) [RH = 84%]
Pressure (altimeter): 29.73 inches Hg (1007.0 mb)
Winds: from the SW (220 degrees) at 9 MPH (8 knots; 4.1 m/s)
Visibility: 2.17 miles (3.49 km)
Ceiling: 10000 feet AGL
Clouds: few clouds at 2000 feet AGL
broken clouds at 10000 feet AGL
Weather: HZ  (haze)

METAR text: VECC 030200Z 20004KT 3500 HZ FEW020 BKN100 28/26 Q1007 NOSIG
Conditions at: VECC (CALCUTTA/DUM DUM, IN) observed 0200 UTC 03 June 2020
Temperature: 28.0°C (82°F)
Dewpoint: 26.0°C (79°F) [RH = 89%]
Pressure (altimeter): 29.73 inches Hg (1007.0 mb)
Winds: from the SSW (200 degrees) at 5 MPH (4 knots; 2.1 m/s)
Visibility: 2.17 miles (3.49 km)
Ceiling: 10000 feet AGL
Clouds: few clouds at 2000 feet AGL
broken clouds at 10000 feet AGL
Weather: HZ  (haze)

METAR text: VECC 030130Z 20004KT 3500 HZ FEW020 BKN100 28/26 Q1006 NOSIG
Conditions at: VECC (CALCUTTA/DUM DUM, IN) observed 0130 UTC 03 June 2020
Temperature: 28.0°C (82°F)
Dewpoint: 26.0°C (79°F) [RH = 89%]
Pressure (altimeter): 29.70 inches Hg (1006.0 mb)
Winds: from the SSW (200 degrees) at 5 MPH (4 knots; 2.1 m/s)
Visibility: 2.17 miles (3.49 km)
Ceiling: 10000 feet AGL
Clouds: few clouds at 2000 feet AGL
broken clouds at 10000 feet AGL
Weather: HZ  (haze)

METAR text: VECC 030100Z 19003KT 3500 HZ FEW020 BKN100 27/26 Q1006 NOSIG
Conditions at: VECC (CALCUTTA/DUM DUM, IN) observed 0100 UTC 03 June 2020
Temperature: 27.0°C (81°F)
Dewpoint: 26.0°C (79°F) [RH = 94%]
Pressure (altimeter): 29.70 inches Hg (1006.0 mb)
Winds: from the S (190 degrees) at 3 MPH (3 knots; 1.5 m/s)
Visibility: 2.17 miles (3.49 km)
Ceiling: 10000 feet AGL
Clouds: few clouds at 2000 feet AGL
broken clouds at 10000 feet AGL
Weather: HZ  (haze)

METAR text: VECC 030030Z 19003KT 3200 HZ FEW020 BKN100 27/26 Q1005 NOSIG
Conditions at: VECC (CALCUTTA/DUM DUM, IN) observed 0030 UTC 03 June 2020
Temperature: 27.0°C (81°F)
Dewpoint: 26.0°C (79°F) [RH = 94%]
Pressure (altimeter): 29.68 inches Hg (1005.0 mb)
Winds: from the S (190 degrees) at 3 MPH (3 knots; 1.5 m/s)
Visibility: 1.99 miles (3.20 km)
Ceiling: 10000 feet AGL
Clouds: few clouds at 2000 feet AGL
broken clouds at 10000 feet AGL
Weather: HZ  (haze)

METAR text: VECC 030000Z 19003KT 3200 HZ FEW020 BKN100 26/25 Q1005 NOSIG
Conditions at: VECC (CALCUTTA/DUM DUM, IN) observed 0000 UTC 03 June 2020
Temperature: 26.0°C (79°F)
Dewpoint: 25.0°C (77°F) [RH = 94%]
Pressure (altimeter): 29.68 inches Hg (1005.0 mb)
Winds: from the S (190 degrees) at 3 MPH (3 knots; 1.5 m/s)
Visibility: 1.99 miles (3.20 km)
Ceiling: 10000 feet AGL
Clouds: few clouds at 2000 feet AGL
broken clouds at 10000 feet AGL
Weather: HZ  (haze)

METAR text: VECC 022330Z 19003KT 3200 HZ FEW020 BKN100 26/25 Q1004 NOSIG
Conditions at: VECC (CALCUTTA/DUM DUM, IN) observed 2330 UTC 02 June 2020
Temperature: 26.0°C (79°F)
Dewpoint: 25.0°C (77°F) [RH = 94%]
Pressure (altimeter): 29.65 inches Hg (1004.0 mb)
Winds: from the S (190 degrees) at 3 MPH (3 knots; 1.5 m/s)
Visibility: 1.99 miles (3.20 km)
Ceiling: 10000 feet AGL
Clouds: few clouds at 2000 feet AGL
broken clouds at 10000 feet AGL
Weather: HZ  (haze)

METAR text: VECC 022300Z 19004KT 3200 HZ SCT018 BKN100 26/25 Q1004 BECMG 3000 HZ
Conditions at: VECC (CALCUTTA/DUM DUM, IN) observed 2300 UTC 02 June 2020
Temperature: 26.0°C (79°F)
Dewpoint: 25.0°C (77°F) [RH = 94%]
Pressure (altimeter): 29.65 inches Hg (1004.0 mb)
Winds: from the S (190 degrees) at 5 MPH (4 knots; 2.1 m/s)
Visibility: 1.99 miles (3.20 km)
Ceiling: 10000 feet AGL
Clouds: scattered clouds at 1800 feet AGL
broken clouds at 10000 feet AGL
Weather: HZ  (haze)

METAR text: VECC 022230Z 18005KT 3200 HZ SCT018 SCT100 26/25 Q1005 NOSIG
Conditions at: VECC (CALCUTTA/DUM DUM, IN) observed 2230 UTC 02 June 2020
Temperature: 26.0°C (79°F)
Dewpoint: 25.0°C (77°F) [RH = 94%]
Pressure (altimeter): 29.68 inches Hg (1005.0 mb)
Winds: from the S (180 degrees) at 6 MPH (5 knots; 2.6 m/s)
Visibility: 1.99 miles (3.20 km)
Ceiling: at least 12,000 feet AGL
Clouds: scattered clouds at 1800 feet AGL
scattered clouds at 10000 feet AGL
Weather: HZ  (haze)

METAR text: VECC 022200Z 18005KT 3200 HZ SCT018 SCT100 26/25 Q1004 NOSIG
Conditions at: VECC (CALCUTTA/DUM DUM, IN) observed 2200 UTC 02 June 2020
Temperature: 26.0°C (79°F)
Dewpoint: 25.0°C (77°F) [RH = 94%]
Pressure (altimeter): 29.65 inches Hg (1004.0 mb)
Winds: from the S (180 degrees) at 6 MPH (5 knots; 2.6 m/s)
Visibility: 1.99 miles (3.20 km)
Ceiling: at least 12,000 feet AGL
Clouds: scattered clouds at 1800 feet AGL
scattered clouds at 10000 feet AGL
Weather: HZ  (haze)

METAR text: VECC 022130Z 18005KT 3200 HZ SCT018 BKN100 26/25 Q1004 NOSIG
Conditions at: VECC (CALCUTTA/DUM DUM, IN) observed 2130 UTC 02 June 2020
Temperature: 26.0°C (79°F)
Dewpoint: 25.0°C (77°F) [RH = 94%]
Pressure (altimeter): 29.65 inches Hg (1004.0 mb)
Winds: from the S (180 degrees) at 6 MPH (5 knots; 2.6 m/s)
Visibility: 1.99 miles (3.20 km)
Ceiling: 10000 feet AGL
Clouds: scattered clouds at 1800 feet AGL
broken clouds at 10000 feet AGL
Weather: HZ  (haze)

METAR text: VECC 022100Z 18004KT 3200 HZ SCT018 BKN100 26/25 Q1004 NOSIG
Conditions at: VECC (CALCUTTA/DUM DUM, IN) observed 2100 UTC 02 June 2020
Temperature: 26.0°C (79°F)
Dewpoint: 25.0°C (77°F) [RH = 94%]
Pressure (altimeter): 29.65 inches Hg (1004.0 mb)
Winds: from the S (180 degrees) at 5 MPH (4 knots; 2.1 m/s)
Visibility: 1.99 miles (3.20 km)
Ceiling: 10000 feet AGL
Clouds: scattered clouds at 1800 feet AGL
broken clouds at 10000 feet AGL
Weather: HZ  (haze)

METAR text: VECC 022030Z 15004KT 3200 HZ SCT018 BKN100 26/25 Q1004 NOSIG
Conditions at: VECC (CALCUTTA/DUM DUM, IN) observed 2030 UTC 02 June 2020
Temperature: 26.0°C (79°F)
Dewpoint: 25.0°C (77°F) [RH = 94%]
Pressure (altimeter): 29.65 inches Hg (1004.0 mb)
Winds: from the SSE (150 degrees) at 5 MPH (4 knots; 2.1 m/s)
Visibility: 1.99 miles (3.20 km)
Ceiling: 10000 feet AGL
Clouds: scattered clouds at 1800 feet AGL
broken clouds at 10000 feet AGL
Weather: HZ  (haze)

METAR text: VECC 022000Z 17003KT 3200 HZ SCT018 BKN100 26/25 Q1005 NOSIG
Conditions at: VECC (CALCUTTA/DUM DUM, IN) observed 2000 UTC 02 June 2020
Temperature: 26.0°C (79°F)
Dewpoint: 25.0°C (77°F) [RH = 94%]
Pressure (altimeter): 29.68 inches Hg (1005.0 mb)
Winds: from the S (170 degrees) at 3 MPH (3 knots; 1.5 m/s)
Visibility: 1.99 miles (3.20 km)
Ceiling: 10000 feet AGL
Clouds: scattered clouds at 1800 feet AGL
broken clouds at 10000 feet AGL
Weather: HZ  (haze)

METAR text: VECC 021930Z 16004KT 3200 HZ SCT018 SCT100 26/25 Q1005 NOSIG
Conditions at: VECC (CALCUTTA/DUM DUM, IN) observed 1930 UTC 02 June 2020
Temperature: 26.0°C (79°F)
Dewpoint: 25.0°C (77°F) [RH = 94%]
Pressure (altimeter): 29.68 inches Hg (1005.0 mb)
Winds: from the SSE (160 degrees) at 5 MPH (4 knots; 2.1 m/s)
Visibility: 1.99 miles (3.20 km)
Ceiling: at least 12,000 feet AGL
Clouds: scattered clouds at 1800 feet AGL
scattered clouds at 10000 feet AGL
Weather: HZ  (haze)

METAR text: VECC 021900Z 14004KT 3200 HZ SCT018 BKN100 26/25 Q1005 NOSIG
Conditions at: VECC (CALCUTTA/DUM DUM, IN) observed 1900 UTC 02 June 2020
Temperature: 26.0°C (79°F)
Dewpoint: 25.0°C (77°F) [RH = 94%]
Pressure (altimeter): 29.68 inches Hg (1005.0 mb)
Winds: from the SE (140 degrees) at 5 MPH (4 knots; 2.1 m/s)
Visibility: 1.99 miles (3.20 km)
Ceiling: 10000 feet AGL
Clouds: scattered clouds at 1800 feet AGL
broken clouds at 10000 feet AGL
Weather: HZ  (haze)

METAR text: VECC 021830Z 15005KT 3200 HZ SCT018 BKN100 26/25 Q1006 NOSIG
Conditions at: VECC (CALCUTTA/DUM DUM, IN) observed 1830 UTC 02 June 2020
Temperature: 26.0°C (79°F)
Dewpoint: 25.0°C (77°F) [RH = 94%]
Pressure (altimeter): 29.70 inches Hg (1006.0 mb)
Winds: from the SSE (150 degrees) at 6 MPH (5 knots; 2.6 m/s)
Visibility: 1.99 miles (3.20 km)
Ceiling: 10000 feet AGL
Clouds: scattered clouds at 1800 feet AGL
broken clouds at 10000 feet AGL
Weather: HZ  (haze)

METAR text: VECC 021800Z 10003KT 3200 HZ SCT018 BKN100 26/25 Q1006 NOSIG
Conditions at: VECC (CALCUTTA/DUM DUM, IN) observed 1800 UTC 02 June 2020
Temperature: 26.0°C (79°F)
Dewpoint: 25.0°C (77°F) [RH = 94%]
Pressure (altimeter): 29.70 inches Hg (1006.0 mb)
Winds: from the E (100 degrees) at 3 MPH (3 knots; 1.5 m/s)
Visibility: 1.99 miles (3.20 km)
Ceiling: 10000 feet AGL
Clouds: scattered clouds at 1800 feet AGL
broken clouds at 10000 feet AGL
Weather: HZ  (haze)

METAR text: VECC 021730Z 07004KT 3200 HZ SCT018 BKN100 26/25 Q1007 NOSIG
Conditions at: VECC (CALCUTTA/DUM DUM, IN) observed 1730 UTC 02 June 2020
Temperature: 26.0°C (79°F)
Dewpoint: 25.0°C (77°F) [RH = 94%]
Pressure (altimeter): 29.73 inches Hg (1007.0 mb)
Winds: from the ENE (70 degrees) at 5 MPH (4 knots; 2.1 m/s)
Visibility: 1.99 miles (3.20 km)
Ceiling: 10000 feet AGL
Clouds: scattered clouds at 1800 feet AGL
broken clouds at 10000 feet AGL
Weather: HZ  (haze)

METAR text: VECC 021700Z 02005KT 3200 HZ SCT018 FEW030CB BKN090 25/24 Q1007 NOSIG
Conditions at: VECC (CALCUTTA/DUM DUM, IN) observed 1700 UTC 02 June 2020
Temperature: 25.0°C (77°F)
Dewpoint: 24.0°C (75°F) [RH = 94%]
Pressure (altimeter): 29.73 inches Hg (1007.0 mb)
Winds: from the NNE (20 degrees) at 6 MPH (5 knots; 2.6 m/s)
Visibility: 1.99 miles (3.20 km)
Ceiling: 9000 feet AGL
Clouds: scattered clouds at 1800 feet AGL
few clouds at 3000 feet AGL
broken clouds at 9000 feet AGL
Weather: HZ  (haze)

METAR text: VECC 021630Z 16003KT 3200 HZ SCT018 FEW030CB BKN090 25/24 Q1007 NOSIG
Conditions at: VECC (CALCUTTA/DUM DUM, IN) observed 1630 UTC 02 June 2020
Temperature: 25.0°C (77°F)
Dewpoint: 24.0°C (75°F) [RH = 94%]
Pressure (altimeter): 29.73 inches Hg (1007.0 mb)
Winds: from the SSE (160 degrees) at 3 MPH (3 knots; 1.5 m/s)
Visibility: 1.99 miles (3.20 km)
Ceiling: 9000 feet AGL
Clouds: scattered clouds at 1800 feet AGL
few clouds at 3000 feet AGL
broken clouds at 9000 feet AGL
Weather: HZ  (haze)

METAR text: VECC 021600Z 17004KT 3200 HZ SCT018 FEW030CB BKN090 25/24 Q1007 NOSIG
Conditions at: VECC (CALCUTTA/DUM DUM, IN) observed 1600 UTC 02 June 2020
Temperature: 25.0°C (77°F)
Dewpoint: 24.0°C (75°F) [RH = 94%]
Pressure (altimeter): 29.73 inches Hg (1007.0 mb)
Winds: from the S (170 degrees) at 5 MPH (4 knots; 2.1 m/s)
Visibility: 1.99 miles (3.20 km)
Ceiling: 9000 feet AGL
Clouds: scattered clouds at 1800 feet AGL
few clouds at 3000 feet AGL
broken clouds at 9000 feet AGL
Weather: HZ  (haze)

METAR text: VECC 021530Z 12005KT 3200 HZ SCT018 FEW030CB BKN090 25/24 Q1006 NOSIG
Conditions at: VECC (CALCUTTA/DUM DUM, IN) observed 1530 UTC 02 June 2020
Temperature: 25.0°C (77°F)
Dewpoint: 24.0°C (75°F) [RH = 94%]
Pressure (altimeter): 29.70 inches Hg (1006.0 mb)
Winds: from the ESE (120 degrees) at 6 MPH (5 knots; 2.6 m/s)
Visibility: 1.99 miles (3.20 km)
Ceiling: 9000 feet AGL
Clouds: scattered clouds at 1800 feet AGL
few clouds at 3000 feet AGL
broken clouds at 9000 feet AGL
Weather: HZ  (haze)

METAR text: VECC 021500Z 16008KT 3200 -RA SCT018 FEW030CB OVC090 25/24 Q1005 TEMPO TL1530 27015G25KT 1500 TSRA
Conditions at: VECC (CALCUTTA/DUM DUM, IN) observed 1500 UTC 02 June 2020
Temperature: 25.0°C (77°F)
Dewpoint: 24.0°C (75°F) [RH = 94%]
Pressure (altimeter): 29.68 inches Hg (1005.0 mb)
Winds: from the SSE (160 degrees) at 9 MPH (8 knots; 4.1 m/s)
Visibility: 1.99 miles (3.20 km)
Ceiling: 9000 feet AGL
Clouds: scattered clouds at 1800 feet AGL
few clouds at 3000 feet AGL
overcast cloud deck at 9000 feet AGL
Weather: -RA  (light rain)

METAR text: VECC 021430Z 12009KT 3200 -TSRA SCT018 FEW025CB OVC090 26/25 Q1005 TEMPO TL1530 27015G25KT 1500 TSRA
Conditions at: VECC (CALCUTTA/DUM DUM, IN) observed 1430 UTC 02 June 2020
Temperature: 26.0°C (79°F)
Dewpoint: 25.0°C (77°F) [RH = 94%]
Pressure (altimeter): 29.68 inches Hg (1005.0 mb)
Winds: from the ESE (120 degrees) at 10 MPH (9 knots; 4.6 m/s)
Visibility: 1.99 miles (3.20 km)
Ceiling: 9000 feet AGL
Clouds: scattered clouds at 1800 feet AGL
few clouds at 2500 feet AGL
overcast cloud deck at 9000 feet AGL
Weather: -TSRA  (light rain associated with thunderstorm(s))

METAR text: VECC 021400Z 11012KT 3200 -TSRA SCT018 FEW025CB OVC090 26/25 Q1005 TEMPO TL1530 27015G25KT 1500 TSRA
Conditions at: VECC (CALCUTTA/DUM DUM, IN) observed 1400 UTC 02 June 2020
Temperature: 26.0°C (79°F)
Dewpoint: 25.0°C (77°F) [RH = 94%]
Pressure (altimeter): 29.68 inches Hg (1005.0 mb)
Winds: from the ESE (110 degrees) at 14 MPH (12 knots; 6.2 m/s)
Visibility: 1.99 miles (3.20 km)
Ceiling: 9000 feet AGL
Clouds: scattered clouds at 1800 feet AGL
few clouds at 2500 feet AGL
overcast cloud deck at 9000 feet AGL
Weather: -TSRA  (light rain associated with thunderstorm(s))

METAR text: VECC 021330Z 20015G25KT 2500 -TSRA SCT010 BKN015 FEW025CB OVC090 26/26 Q1004 TEMPO TL1530 27015G25KT 1500 TSRA
Conditions at: VECC (CALCUTTA/DUM DUM, IN) observed 1330 UTC 02 June 2020
Temperature: 26.0°C (79°F)
Dewpoint: 26.0°C (79°F) [RH = 100%]
Pressure (altimeter): 29.65 inches Hg (1004.0 mb)
Winds: from the SSW (200 degrees) at 17 MPH (15 knots; 7.7 m/s)
gusting to 29 MPH (25 knots; 12.9 m/s)
Visibility: 1.55 miles (2.49 km)
Ceiling: 1500 feet AGL
Clouds: scattered clouds at 1000 feet AGL
broken clouds at 1500 feet AGL
few clouds at 2500 feet AGL
overcast cloud deck at 9000 feet AGL
Weather: -TSRA  (light rain associated with thunderstorm(s))

METAR text: VECC 021300Z 20014KT 3500 TS SCT015 FEW025CB BKN100 31/29 Q1004 TEMPO TL1330 27015G25KT 1500 TSRA
Conditions at: VECC (CALCUTTA/DUM DUM, IN) observed 1300 UTC 02 June 2020
Temperature: 31.0°C (88°F)
Dewpoint: 29.0°C (84°F) [RH = 89%]
Pressure (altimeter): 29.65 inches Hg (1004.0 mb)
Winds: from the SSW (200 degrees) at 16 MPH (14 knots; 7.2 m/s)
Visibility: 2.17 miles (3.49 km)
Ceiling: 10000 feet AGL
Clouds: scattered clouds at 1500 feet AGL
few clouds at 2500 feet AGL
broken clouds at 10000 feet AGL
Weather: TS  (thunderstorm)

METAR text: VECC 021230Z 20013KT 3500 TS SCT018 FEW030CB BKN100 32/30 Q1003 TEMPO TL1330 27015G25KT 1500 TSRA
Conditions at: VECC (CALCUTTA/DUM DUM, IN) observed 1230 UTC 02 June 2020
Temperature: 32.0°C (90°F)
Dewpoint: 30.0°C (86°F) [RH = 89%]
Pressure (altimeter): 29.62 inches Hg (1003.0 mb)
Winds: from the SSW (200 degrees) at 15 MPH (13 knots; 6.7 m/s)
Visibility: 2.17 miles (3.49 km)
Ceiling: 10000 feet AGL
Clouds: scattered clouds at 1800 feet AGL
few clouds at 3000 feet AGL
broken clouds at 10000 feet AGL
Weather: TS  (thunderstorm)

METAR text: VECC 021200Z 20012KT 3500 TS SCT018 FEW030CB BKN100 33/30 Q1002 TEMPO TL1330 27015G25KT 1500 TSRA
Conditions at: VECC (CALCUTTA/DUM DUM, IN) observed 1200 UTC 02 June 2020
Temperature: 33.0°C (91°F)
Dewpoint: 30.0°C (86°F) [RH = 84%]
Pressure (altimeter): 29.59 inches Hg (1002.0 mb)
Winds: from the SSW (200 degrees) at 14 MPH (12 knots; 6.2 m/s)
Visibility: 2.17 miles (3.49 km)
Ceiling: 10000 feet AGL
Clouds: scattered clouds at 1800 feet AGL
few clouds at 3000 feet AGL
broken clouds at 10000 feet AGL
Weather: TS  (thunderstorm)

METAR text: VECC 021130Z 17011KT 3800 TS SCT020 FEW030CB BKN100 33/29 Q1002 TEMPO TL1430 1500 TSRA
Conditions at: VECC (CALCUTTA/DUM DUM, IN) observed 1130 UTC 02 June 2020
Temperature: 33.0°C (91°F)
Dewpoint: 29.0°C (84°F) [RH = 80%]
Pressure (altimeter): 29.59 inches Hg (1002.0 mb)
Winds: from the S (170 degrees) at 13 MPH (11 knots; 5.7 m/s)
Visibility: 2.36 miles (3.80 km)
Ceiling: 10000 feet AGL
Clouds: scattered clouds at 2000 feet AGL
few clouds at 3000 feet AGL
broken clouds at 10000 feet AGL
Weather: TS  (thunderstorm)

METAR text: VECC 021100Z 16008KT 4000 HZ SCT020 BKN100 34/29 Q1003 NOSIG
Conditions at: VECC (CALCUTTA/DUM DUM, IN) observed 1100 UTC 02 June 2020
Temperature: 34.0°C (93°F)
Dewpoint: 29.0°C (84°F) [RH = 75%]
Pressure (altimeter): 29.62 inches Hg (1003.0 mb)
Winds: from the SSE (160 degrees) at 9 MPH (8 knots; 4.1 m/s)
Visibility: 2.49 miles (4.01 km)
Ceiling: 10000 feet AGL
Clouds: scattered clouds at 2000 feet AGL
broken clouds at 10000 feet AGL
Weather: HZ  (haze)

METAR text: VECC 021030Z 16008KT 4000 HZ SCT020 BKN100 34/29 Q1003 NOSIG
Conditions at: VECC (CALCUTTA/DUM DUM, IN) observed 1030 UTC 02 June 2020
Temperature: 34.0°C (93°F)
Dewpoint: 29.0°C (84°F) [RH = 75%]
Pressure (altimeter): 29.62 inches Hg (1003.0 mb)
Winds: from the SSE (160 degrees) at 9 MPH (8 knots; 4.1 m/s)
Visibility: 2.49 miles (4.01 km)
Ceiling: 10000 feet AGL
Clouds: scattered clouds at 2000 feet AGL
broken clouds at 10000 feet AGL
Weather: HZ  (haze)

METAR text: VECC 021000Z 18010KT 4000 HZ SCT020 BKN100 35/29 Q1003 NOSIG
Conditions at: VECC (CALCUTTA/DUM DUM, IN) observed 1000 UTC 02 June 2020
Temperature: 35.0°C (95°F)
Dewpoint: 29.0°C (84°F) [RH = 71%]
Pressure (altimeter): 29.62 inches Hg (1003.0 mb)
Winds: from the S (180 degrees) at 12 MPH (10 knots; 5.1 m/s)
Visibility: 2.49 miles (4.01 km)
Ceiling: 10000 feet AGL
Clouds: scattered clouds at 2000 feet AGL
broken clouds at 10000 feet AGL
Weather: HZ  (haze)

METAR text: VECC 020930Z 19012KT 4000 HZ SCT020 BKN100 35/29 Q1003 NOSIG
Conditions at: VECC (CALCUTTA/DUM DUM, IN) observed 0930 UTC 02 June 2020
Temperature: 35.0°C (95°F)
Dewpoint: 29.0°C (84°F) [RH = 71%]
Pressure (altimeter): 29.62 inches Hg (1003.0 mb)
Winds: from the S (190 degrees) at 14 MPH (12 knots; 6.2 m/s)
Visibility: 2.49 miles (4.01 km)
Ceiling: 10000 feet AGL
Clouds: scattered clouds at 2000 feet AGL
broken clouds at 10000 feet AGL
Weather: HZ  (haze)

METAR text: VECC 020900Z 25004KT 4000 HZ SCT020 SCT100 37/29 Q1004 NOSIG
Conditions at: VECC (CALCUTTA/DUM DUM, IN) observed 0900 UTC 02 June 2020
Temperature: 37.0°C (99°F)
Dewpoint: 29.0°C (84°F) [RH = 64%]
Pressure (altimeter): 29.65 inches Hg (1004.0 mb)
Winds: from the WSW (250 degrees) at 5 MPH (4 knots; 2.1 m/s)
Visibility: 2.49 miles (4.01 km)
Ceiling: at least 12,000 feet AGL
Clouds: scattered clouds at 2000 feet AGL
scattered clouds at 10000 feet AGL
Weather: HZ  (haze)

METAR text: VECC 020830Z 21004KT 4000 HZ SCT020 SCT100 36/29 Q1004 NOSIG
Conditions at: VECC (CALCUTTA/DUM DUM, IN) observed 0830 UTC 02 June 2020
Temperature: 36.0°C (97°F)
Dewpoint: 29.0°C (84°F) [RH = 67%]
Pressure (altimeter): 29.65 inches Hg (1004.0 mb)
Winds: from the SSW (210 degrees) at 5 MPH (4 knots; 2.1 m/s)
Visibility: 2.49 miles (4.01 km)
Ceiling: at least 12,000 feet AGL
Clouds: scattered clouds at 2000 feet AGL
scattered clouds at 10000 feet AGL
Weather: HZ  (haze)

METAR text: VECC 020800Z 00000KT 4000 HZ FEW020 SCT100 36/29 Q1005 NOSIG
Conditions at: VECC (CALCUTTA/DUM DUM, IN) observed 0800 UTC 02 June 2020
Temperature: 36.0°C (97°F)
Dewpoint: 29.0°C (84°F) [RH = 67%]
Pressure (altimeter): 29.68 inches Hg (1005.0 mb)
Winds: calm
Visibility: 2.49 miles (4.01 km)
Ceiling: at least 12,000 feet AGL
Clouds: few clouds at 2000 feet AGL
scattered clouds at 10000 feet AGL
Weather: HZ  (haze)

METAR text: VECC 020730Z 20008KT 4000 HZ SCT020 36/29 Q1005 NOSIG
Conditions at: VECC (CALCUTTA/DUM DUM, IN) observed 0730 UTC 02 June 2020
Temperature: 36.0°C (97°F)
Dewpoint: 29.0°C (84°F) [RH = 67%]
Pressure (altimeter): 29.68 inches Hg (1005.0 mb)
Winds: from the SSW (200 degrees) at 9 MPH (8 knots; 4.1 m/s)
Visibility: 2.49 miles (4.01 km)
Ceiling: at least 12,000 feet AGL
Clouds: scattered clouds at 2000 feet AGL
Weather: HZ  (haze)

METAR text: VECC 020700Z 21007KT 4000 HZ FEW020 36/29 Q1006 NOSIG
Conditions at: VECC (CALCUTTA/DUM DUM, IN) observed 0700 UTC 02 June 2020
Temperature: 36.0°C (97°F)
Dewpoint: 29.0°C (84°F) [RH = 67%]
Pressure (altimeter): 29.70 inches Hg (1006.0 mb)
Winds: from the SSW (210 degrees) at 8 MPH (7 knots; 3.6 m/s)
Visibility: 2.49 miles (4.01 km)
Ceiling: at least 12,000 feet AGL
Clouds: few clouds at 2000 feet AGL
Weather: HZ  (haze)

METAR text: VECC 020630Z 21007KT 4000 HZ NSC 35/29 Q1006 NOSIG
Conditions at: VECC (CALCUTTA/DUM DUM, IN) observed 0630 UTC 02 June 2020
Temperature: 35.0°C (95°F)
Dewpoint: 29.0°C (84°F) [RH = 71%]
Pressure (altimeter): 29.70 inches Hg (1006.0 mb)
Winds: from the SSW (210 degrees) at 8 MPH (7 knots; 3.6 m/s)
Visibility: 2.49 miles (4.01 km)
Ceiling: at least 12,000 feet AGL
Clouds: sky clear below 12,000 feet AGL
Weather: HZ  (haze)

METAR text: VECC 020600Z 21008KT 4000 HZ NSC 35/28 Q1006 NOSIG
Conditions at: VECC (CALCUTTA/DUM DUM, IN) observed 0600 UTC 02 June 2020
Temperature: 35.0°C (95°F)
Dewpoint: 28.0°C (82°F) [RH = 67%]
Pressure (altimeter): 29.70 inches Hg (1006.0 mb)
Winds: from the SSW (210 degrees) at 9 MPH (8 knots; 4.1 m/s)
Visibility: 2.49 miles (4.01 km)
Ceiling: at least 12,000 feet AGL
Clouds: sky clear below 12,000 feet AGL
Weather: HZ  (haze)

METAR text: VECC 020530Z 21007KT 4000 HZ NSC 35/28 Q1006 NOSIG
Conditions at: VECC (CALCUTTA/DUM DUM, IN) observed 0530 UTC 02 June 2020
Temperature: 35.0°C (95°F)
Dewpoint: 28.0°C (82°F) [RH = 67%]
Pressure (altimeter): 29.70 inches Hg (1006.0 mb)
Winds: from the SSW (210 degrees) at 8 MPH (7 knots; 3.6 m/s)
Visibility: 2.49 miles (4.01 km)
Ceiling: at least 12,000 feet AGL
Clouds: sky clear below 12,000 feet AGL
Weather: HZ  (haze)

Forecast for: VECC (CALCUTTA/DUM DUM, IN)
Text: TAF VECC 031700Z 0318/0424 20005KT 3500 HZ FEW020 SCT100
Forecast period: 1800 to 2300 UTC 03 June 2020
Forecast type: FROM: standard forecast or significant change
Winds: from the SSW (200 degrees) at 6 MPH (5 knots; 2.6 m/s)
Visibility: 2.17 miles (3.49 km)
Ceiling: at least 12,000 feet AGL
Clouds: few clouds at 2000 feet AGL
scattered clouds at 10000 feet AGL
Weather: HZ  (haze)
Text: BECMG 0323/0401 2800 HZ
Forecast period: 2300 UTC 03 June 2020 to 0300 UTC 04 June 2020
Forecast type: BECOMING: Conditions expected to become as follows by 0100 UTC 04 June 2020
Winds: from the SSW (200 degrees) at 6 MPH (5 knots; 2.6 m/s)
Visibility: 1.74 miles (2.80 km)
Ceiling: at least 12,000 feet AGL
Clouds: few clouds at 2000 feet AGL
scattered clouds at 10000 feet AGL
Weather: HZ  (haze)
Text: BECMG 0403/0405 4000 HZ
Forecast period: 0300 to 2200 UTC 04 June 2020
Forecast type: BECOMING: Conditions expected to become as follows by 0500 UTC 04 June 2020
Winds: from the SSW (200 degrees) at 6 MPH (5 knots; 2.6 m/s)
Visibility: 2.49 miles (4.01 km)
Ceiling: at least 12,000 feet AGL
Clouds: few clouds at 2000 feet AGL
scattered clouds at 10000 feet AGL
Weather: HZ  (haze)
Text: PROB40
Forecast period: 1200 to 1600 UTC 04 June 2020
Forecast type: TEMPORARY: The following changes expected for less than half the time period
Visibility: 1.24 miles (2.00 km)
Ceiling: 9000 feet AGL
Clouds: scattered clouds at 1500 feet AGL
few clouds at 2500 feet AGL
broken clouds at 9000 feet AGL
Weather: TSRA  (rain associated with thunderstorm(s))
Text: TEMPO 0412/0416 2000 TSRA SCT015 FEW025CB BKN090
Forecast period: 2200 UTC 04 June 2020 to 0000 UTC 05 June 2020
Forecast type: BECOMING: Conditions expected to become as follows by 0000 UTC 05 June 2020
Winds: from the SSW (200 degrees) at 6 MPH (5 knots; 2.6 m/s)
Visibility: 1.74 miles (2.80 km)
Ceiling: at least 12,000 feet AGL
Clouds: few clouds at 2000 feet AGL
scattered clouds at 10000 feet AGL
Weather: HZ  (haze)